createdAt,value
2023-04-13T00:00:02.643Z,991.29
2023-04-13T00:01:02.543Z,991.31
2023-04-13T00:02:03.023Z,991.34
2023-04-13T00:03:03.000Z,991.35
2023-04-13T00:04:02.949Z,991.34
2023-04-13T00:05:02.747Z,991.28
2023-04-13T00:06:02.406Z,991.28
2023-04-13T00:07:03.480Z,991.30
2023-04-13T00:08:03.210Z,991.26
2023-04-13T00:09:03.402Z,991.24
2023-04-13T00:10:03.567Z,991.28
2023-04-13T00:11:03.296Z,991.23
2023-04-13T00:12:03.651Z,991.23
2023-04-13T00:13:03.839Z,991.21
2023-04-13T00:14:03.755Z,991.18
2023-04-13T00:15:03.200Z,991.16
2023-04-13T00:16:03.400Z,991.20
2023-04-13T00:17:03.835Z,991.20
2023-04-13T00:18:03.700Z,991.20
2023-04-13T00:19:03.668Z,991.33
2023-04-13T00:20:03.349Z,991.23
2023-04-13T00:21:03.473Z,991.24
2023-04-13T00:22:02.358Z,991.27
2023-04-13T00:23:02.745Z,991.24
2023-04-13T00:24:02.708Z,991.29
2023-04-13T00:25:02.390Z,991.21
2023-04-13T00:26:02.672Z,991.19
2023-04-13T00:27:02.885Z,991.17
2023-04-13T00:28:03.039Z,991.20
2023-04-13T00:29:03.030Z,991.12
2023-04-13T00:30:02.741Z,991.10
2023-04-13T00:31:03.035Z,991.08
2023-04-13T00:32:03.040Z,991.13
2023-04-13T00:33:02.804Z,991.10
2023-04-13T00:34:03.062Z,991.05
2023-04-13T00:35:02.766Z,991.05
2023-04-13T00:36:02.871Z,990.99
2023-04-13T00:37:03.091Z,990.99
2023-04-13T00:38:02.989Z,990.95
2023-04-13T00:39:03.113Z,990.92
2023-04-13T00:40:03.185Z,990.91
2023-04-13T00:41:02.719Z,990.93
2023-04-13T00:42:03.648Z,990.88
2023-04-13T00:43:03.326Z,990.85
2023-04-13T00:44:03.355Z,990.89
2023-04-13T00:45:03.662Z,990.83
2023-04-13T00:46:03.474Z,990.83
2023-04-13T00:47:02.975Z,990.87
2023-04-13T00:48:02.438Z,990.84
2023-04-13T00:49:02.914Z,990.82
2023-04-13T00:50:02.932Z,990.84
2023-04-13T00:51:02.361Z,990.80
2023-04-13T00:52:03.501Z,990.79
2023-04-13T00:53:03.083Z,990.82
2023-04-13T00:54:03.008Z,990.78
2023-04-13T00:55:03.316Z,990.81
2023-04-13T00:56:02.871Z,990.79
2023-04-13T00:57:02.397Z,990.81
2023-04-13T00:58:02.704Z,990.83
2023-04-13T00:59:02.566Z,990.81
2023-04-13T01:00:02.855Z,990.82
2023-04-13T01:01:02.656Z,990.76
2023-04-13T01:02:02.207Z,990.73
2023-04-13T01:03:02.659Z,990.87
2023-04-13T01:04:02.363Z,990.78
2023-04-13T01:05:02.574Z,990.81
2023-04-13T01:06:01.977Z,990.79
2023-04-13T01:07:02.372Z,990.78
2023-04-13T01:08:02.784Z,990.76
2023-04-13T01:09:02.357Z,990.82
2023-04-13T01:10:02.735Z,990.80
2023-04-13T01:11:02.493Z,990.83
2023-04-13T01:12:02.415Z,990.81
2023-04-13T01:13:01.882Z,990.79
2023-04-13T01:14:02.386Z,990.79
2023-04-13T01:15:01.791Z,990.78
2023-04-13T01:16:02.301Z,990.81
2023-04-13T01:18:02.357Z,990.74
2023-04-13T01:20:02.320Z,990.74
2023-04-13T01:21:02.119Z,990.78
2023-04-13T01:22:02.966Z,990.79
2023-04-13T01:23:02.463Z,990.79
2023-04-13T01:24:02.852Z,990.80
2023-04-13T01:25:02.825Z,990.71
2023-04-13T01:26:02.550Z,990.69
2023-04-13T01:27:02.038Z,990.67
2023-04-13T01:28:01.907Z,990.64
2023-04-13T01:29:02.343Z,990.62
2023-04-13T01:30:02.314Z,990.68
2023-04-13T01:31:02.203Z,990.65
2023-04-13T01:32:02.669Z,990.68
2023-04-13T01:33:02.923Z,990.71
2023-04-13T01:34:02.785Z,990.71
2023-04-13T01:35:03.105Z,990.65
2023-04-13T01:36:02.501Z,990.68
2023-04-13T01:37:02.164Z,990.64
2023-04-13T01:38:01.842Z,990.68
2023-04-13T01:39:02.177Z,990.67
2023-04-13T01:40:02.305Z,990.70
2023-04-13T01:41:01.989Z,990.71
2023-04-13T01:42:02.566Z,990.66
2023-04-13T01:43:02.336Z,990.73
2023-04-13T01:44:02.712Z,990.68
2023-04-13T01:45:02.381Z,990.64
2023-04-13T01:46:02.772Z,990.65
2023-04-13T01:47:01.944Z,990.57
2023-04-13T01:48:02.302Z,990.62
2023-04-13T01:49:01.738Z,990.57
2023-04-13T01:50:01.927Z,990.55
2023-04-13T01:51:02.214Z,990.55
2023-04-13T01:52:02.556Z,990.53
2023-04-13T01:53:02.763Z,990.51
2023-04-13T01:54:02.478Z,990.58
2023-04-13T01:55:02.611Z,990.54
2023-04-13T01:56:02.319Z,990.53
2023-04-13T01:57:02.577Z,990.56
2023-04-13T01:58:02.425Z,990.59
2023-04-13T01:59:02.728Z,990.56
2023-04-13T02:00:02.544Z,990.55
2023-04-13T02:01:03.100Z,990.54
2023-04-13T02:02:03.212Z,990.56
2023-04-13T02:03:03.753Z,990.56
2023-04-13T02:04:04.291Z,990.59
2023-04-13T02:05:03.522Z,990.53
2023-04-13T02:06:03.589Z,990.56
2023-04-13T02:07:02.758Z,990.57
2023-04-13T02:08:02.990Z,990.54
2023-04-13T02:09:02.985Z,990.59
2023-04-13T02:10:02.542Z,990.60
2023-04-13T02:11:02.511Z,990.64
2023-04-13T02:12:02.833Z,990.57
2023-04-13T02:13:03.191Z,990.66
2023-04-13T02:14:02.559Z,990.72
2023-04-13T02:15:03.026Z,990.74
2023-04-13T02:16:02.713Z,990.71
2023-04-13T02:17:03.387Z,990.72
2023-04-13T02:18:03.196Z,990.69
2023-04-13T02:19:03.040Z,990.71
2023-04-13T02:20:03.505Z,990.66
2023-04-13T02:21:03.420Z,990.65
2023-04-13T02:22:03.176Z,990.62
2023-04-13T02:23:02.582Z,990.60
2023-04-13T02:24:03.170Z,990.58
2023-04-13T02:25:02.689Z,990.63
2023-04-13T02:26:02.665Z,990.60
2023-04-13T02:27:03.237Z,990.53
2023-04-13T02:28:03.090Z,990.54
2023-04-13T02:29:03.065Z,990.53
2023-04-13T02:30:02.828Z,990.51
2023-04-13T02:31:03.200Z,990.60
2023-04-13T02:32:03.491Z,990.56
2023-04-13T02:33:03.494Z,990.65
2023-04-13T02:34:03.504Z,990.64
2023-04-13T02:35:03.350Z,990.70
2023-04-13T02:36:03.612Z,990.69
2023-04-13T02:37:02.899Z,990.75
2023-04-13T02:38:02.543Z,990.70
2023-04-13T02:39:02.965Z,990.70
2023-04-13T02:40:02.537Z,990.68
2023-04-13T02:41:03.302Z,990.72
2023-04-13T02:42:03.077Z,990.68
2023-04-13T02:43:03.396Z,990.66
2023-04-13T02:44:03.141Z,990.71
2023-04-13T02:45:03.527Z,990.63
2023-04-13T02:46:03.084Z,990.77
2023-04-13T02:47:03.702Z,990.65
2023-04-13T02:48:03.393Z,990.66
2023-04-13T02:49:03.183Z,990.69
2023-04-13T02:50:03.240Z,990.63
2023-04-13T02:51:03.607Z,990.57
2023-04-13T02:52:03.166Z,990.60
2023-04-13T02:53:02.854Z,990.65
2023-04-13T02:54:03.453Z,990.64
2023-04-13T02:55:03.125Z,990.65
2023-04-13T02:56:02.691Z,990.60
2023-04-13T02:57:03.256Z,990.59
2023-04-13T02:58:02.974Z,990.61
2023-04-13T02:59:02.700Z,990.62
2023-04-13T03:00:02.947Z,990.63
2023-04-13T03:01:02.804Z,990.61
2023-04-13T03:02:02.364Z,990.58
2023-04-13T03:03:01.984Z,990.68
2023-04-13T03:04:02.395Z,990.66
2023-04-13T03:05:01.915Z,990.62
2023-04-13T03:06:02.214Z,990.63
2023-04-13T03:07:02.612Z,990.62
2023-04-13T03:08:02.375Z,990.68
2023-04-13T03:09:02.637Z,990.61
2023-04-13T03:10:02.225Z,990.63
2023-04-13T03:11:02.668Z,990.71
2023-04-13T03:12:02.300Z,990.64
2023-04-13T03:13:02.661Z,990.66
2023-04-13T03:14:02.522Z,990.60
2023-04-13T03:15:02.585Z,990.58
2023-04-13T03:16:02.592Z,990.64
2023-04-13T03:17:03.001Z,990.62
2023-04-13T03:18:03.076Z,990.62
2023-04-13T03:19:02.538Z,990.64
2023-04-13T03:20:02.697Z,990.64
2023-04-13T03:21:02.766Z,990.58
2023-04-13T03:22:02.048Z,990.62
2023-04-13T03:23:02.077Z,990.63
2023-04-13T03:24:02.551Z,990.63
2023-04-13T03:25:02.145Z,990.64
2023-04-13T03:26:02.455Z,990.58
2023-04-13T03:27:02.558Z,990.57
2023-04-13T03:28:02.358Z,990.65
2023-04-13T03:29:02.259Z,990.62
2023-04-13T03:30:01.977Z,990.60
2023-04-13T03:31:02.170Z,990.63
2023-04-13T03:32:03.277Z,990.65
2023-04-13T03:33:02.988Z,990.57
2023-04-13T03:34:02.674Z,990.55
2023-04-13T03:35:02.977Z,990.58
2023-04-13T03:36:02.619Z,990.60
2023-04-13T03:37:02.704Z,990.59
2023-04-13T03:38:02.305Z,990.61
2023-04-13T03:39:02.110Z,990.60
2023-04-13T03:40:02.256Z,990.57
2023-04-13T03:41:02.417Z,990.62
2023-04-13T03:42:02.170Z,990.54
2023-04-13T03:43:02.161Z,990.55
2023-04-13T03:44:02.812Z,990.63
2023-04-13T03:45:02.410Z,990.72
2023-04-13T03:46:02.895Z,990.53
2023-04-13T03:47:02.851Z,990.62
2023-04-13T03:48:02.990Z,990.64
2023-04-13T03:49:02.417Z,990.60
2023-04-13T03:50:02.910Z,990.66
2023-04-13T03:51:03.000Z,990.64
2023-04-13T03:52:01.821Z,990.67
2023-04-13T03:53:02.332Z,990.65
2023-04-13T03:54:01.937Z,990.71
2023-04-13T03:55:02.490Z,990.67
2023-04-13T03:56:01.996Z,990.69
2023-04-13T03:57:02.459Z,990.63
2023-04-13T03:58:02.687Z,990.70
2023-04-13T03:59:02.786Z,990.72
2023-04-13T04:00:02.447Z,990.66
2023-04-13T04:01:02.747Z,990.77
2023-04-13T04:02:03.242Z,990.75
2023-04-13T04:03:03.095Z,990.79
2023-04-13T04:04:03.208Z,990.79
2023-04-13T04:05:02.826Z,990.77
2023-04-13T04:06:02.636Z,990.77
2023-04-13T04:07:02.470Z,990.80
2023-04-13T04:08:02.590Z,990.79
2023-04-13T04:09:02.651Z,990.81
2023-04-13T04:10:02.436Z,990.85
2023-04-13T04:11:02.460Z,990.82
2023-04-13T04:12:02.838Z,990.87
2023-04-13T04:13:03.079Z,990.88
2023-04-13T04:14:03.144Z,990.84
2023-04-13T04:15:03.125Z,990.86
2023-04-13T04:16:02.971Z,990.95
2023-04-13T04:17:02.390Z,990.96
2023-04-13T04:18:02.619Z,990.87
2023-04-13T04:19:02.461Z,990.93
2023-04-13T04:20:02.232Z,990.87
2023-04-13T04:21:02.804Z,990.84
2023-04-13T04:22:03.001Z,990.89
2023-04-13T04:23:03.312Z,990.89
2023-04-13T04:24:02.965Z,990.87
2023-04-13T04:25:02.787Z,990.88
2023-04-13T04:26:03.129Z,990.87
2023-04-13T04:27:02.492Z,990.92
2023-04-13T04:28:02.980Z,990.87
2023-04-13T04:29:02.977Z,990.88
2023-04-13T04:30:02.715Z,990.91
2023-04-13T04:31:02.548Z,990.89
2023-04-13T04:32:03.415Z,990.95
2023-04-13T04:33:03.119Z,990.94
2023-04-13T04:34:02.906Z,990.92
2023-04-13T04:35:03.116Z,990.92
2023-04-13T04:36:03.153Z,990.92
2023-04-13T04:37:03.735Z,990.94
2023-04-13T04:38:02.659Z,990.95
2023-04-13T04:39:03.027Z,990.97
2023-04-13T04:40:02.887Z,990.94
2023-04-13T04:41:02.441Z,991.02
2023-04-13T04:42:02.825Z,990.95
2023-04-13T04:43:02.730Z,991.00
2023-04-13T04:44:02.619Z,991.04
2023-04-13T04:45:02.978Z,991.02
2023-04-13T04:46:02.690Z,991.09
2023-04-13T04:47:03.032Z,991.03
2023-04-13T04:48:02.700Z,991.08
2023-04-13T04:49:03.232Z,991.06
2023-04-13T04:50:02.894Z,991.08
2023-04-13T04:51:03.294Z,991.12
2023-04-13T04:52:03.157Z,991.13
2023-04-13T04:53:02.830Z,991.15
2023-04-13T04:54:03.366Z,991.22
2023-04-13T04:55:03.481Z,991.14
2023-04-13T04:56:03.080Z,991.22
2023-04-13T04:57:02.655Z,991.17
2023-04-13T04:58:02.655Z,991.13
2023-04-13T04:59:02.471Z,991.23
2023-04-13T05:00:02.676Z,991.24
2023-04-13T05:01:02.634Z,991.21
2023-04-13T05:02:03.056Z,991.22
2023-04-13T05:03:02.914Z,991.21
2023-04-13T05:04:02.817Z,991.21
2023-04-13T05:05:03.376Z,991.28
2023-04-13T05:06:03.451Z,991.29
2023-04-13T05:07:03.343Z,991.20
2023-04-13T05:08:03.421Z,991.18
2023-04-13T05:09:03.516Z,991.25
2023-04-13T05:10:03.347Z,991.27
2023-04-13T05:11:03.149Z,991.26
2023-04-13T05:12:02.661Z,991.36
2023-04-13T05:13:02.429Z,991.31
2023-04-13T05:14:02.474Z,991.38
2023-04-13T05:15:02.398Z,991.34
2023-04-13T05:16:02.368Z,991.39
2023-04-13T05:17:02.821Z,991.44
2023-04-13T05:18:02.733Z,991.50
2023-04-13T05:19:02.699Z,991.46
2023-04-13T05:20:03.134Z,991.50
2023-04-13T05:21:02.798Z,991.54
2023-04-13T05:22:03.332Z,991.57
2023-04-13T05:23:03.020Z,991.62
2023-04-13T05:24:03.309Z,991.60
2023-04-13T05:25:03.338Z,991.65
2023-04-13T05:26:03.280Z,991.63
2023-04-13T05:27:02.853Z,991.69
2023-04-13T05:28:02.785Z,991.67
2023-04-13T05:29:02.731Z,991.70
2023-04-13T05:30:02.673Z,991.75
2023-04-13T05:31:02.470Z,991.75
2023-04-13T05:32:03.058Z,991.75
2023-04-13T05:33:02.558Z,991.81
2023-04-13T05:34:02.517Z,991.85
2023-04-13T05:35:02.536Z,991.85
2023-04-13T05:36:02.733Z,991.90
2023-04-13T05:37:02.777Z,991.94
2023-04-13T05:38:03.018Z,991.92
2023-04-13T05:39:02.918Z,991.92
2023-04-13T05:40:02.928Z,991.92
2023-04-13T05:41:02.801Z,991.94
2023-04-13T05:42:02.653Z,991.93
2023-04-13T05:43:02.255Z,991.93
2023-04-13T05:44:02.290Z,991.96
2023-04-13T05:45:02.454Z,991.96
2023-04-13T05:46:02.462Z,991.94
2023-04-13T05:47:02.997Z,992.00
2023-04-13T05:48:03.221Z,992.04
2023-04-13T05:49:02.581Z,992.02
2023-04-13T05:50:02.740Z,991.98
2023-04-13T05:51:02.667Z,992.06
2023-04-13T05:52:02.597Z,992.14
2023-04-13T05:53:02.325Z,992.09
2023-04-13T05:54:02.639Z,992.06
2023-04-13T05:55:02.510Z,992.08
2023-04-13T05:56:02.393Z,992.13
2023-04-13T05:57:03.176Z,992.12
2023-04-13T05:58:02.869Z,992.12
2023-04-13T05:59:02.909Z,992.13
2023-04-13T06:00:02.939Z,992.15
2023-04-13T06:01:02.875Z,992.21
2023-04-13T06:02:01.906Z,992.19
2023-04-13T06:03:02.224Z,992.23
2023-04-13T06:04:02.104Z,992.30
2023-04-13T06:05:02.240Z,992.30
2023-04-13T06:06:02.072Z,992.34
2023-04-13T06:07:01.822Z,992.38
2023-04-13T06:08:02.446Z,992.36
2023-04-13T06:09:02.545Z,992.41
2023-04-13T06:10:02.223Z,992.43
2023-04-13T06:11:01.948Z,992.44
2023-04-13T06:12:02.486Z,992.46
2023-04-13T06:13:02.463Z,992.48
2023-04-13T06:14:03.077Z,992.51
2023-04-13T06:15:03.071Z,992.54
2023-04-13T06:16:02.601Z,992.53
2023-04-13T06:17:02.311Z,992.58
2023-04-13T06:18:02.380Z,992.61
2023-04-13T06:19:02.945Z,992.57
2023-04-13T06:20:02.722Z,992.59
2023-04-13T06:21:02.272Z,992.64
2023-04-13T06:22:02.341Z,992.65
2023-04-13T06:23:02.708Z,992.69
2023-04-13T06:24:02.614Z,992.68
2023-04-13T06:25:02.464Z,992.69
2023-04-13T06:26:04.310Z,992.70
2023-04-13T06:27:01.913Z,992.71
2023-04-13T06:28:02.342Z,992.70
2023-04-13T06:29:02.130Z,992.71
2023-04-13T06:30:02.421Z,992.71
2023-04-13T06:31:02.165Z,992.70
2023-04-13T06:32:02.360Z,992.74
2023-04-13T06:33:02.361Z,992.78
2023-04-13T06:34:02.547Z,992.79
2023-04-13T06:35:02.397Z,992.78
2023-04-13T06:36:02.200Z,992.80
2023-04-13T06:37:02.636Z,992.84
2023-04-13T06:38:03.163Z,992.79
2023-04-13T06:39:02.694Z,992.80
2023-04-13T06:40:02.837Z,992.82
2023-04-13T06:41:03.133Z,992.84
2023-04-13T06:42:02.624Z,992.83
2023-04-13T06:43:02.798Z,992.90
2023-04-13T06:44:02.604Z,992.92
2023-04-13T06:45:02.859Z,992.95
2023-04-13T06:46:03.035Z,992.92
2023-04-13T06:47:02.013Z,993.00
2023-04-13T06:48:01.873Z,993.00
2023-04-13T06:49:01.996Z,992.97
2023-04-13T06:50:01.918Z,993.00
2023-04-13T06:51:01.950Z,993.05
2023-04-13T06:52:02.481Z,993.05
2023-04-13T06:53:02.362Z,993.06
2023-04-13T06:54:02.548Z,993.03
2023-04-13T06:55:02.380Z,993.03
2023-04-13T06:56:02.282Z,993.04
2023-04-13T06:57:02.109Z,993.03
2023-04-13T06:58:01.873Z,993.05
2023-04-13T06:59:02.858Z,993.09
2023-04-13T07:00:01.880Z,993.11
2023-04-13T07:01:02.128Z,993.09
2023-04-13T07:02:02.471Z,993.10
2023-04-13T07:03:02.325Z,993.09
2023-04-13T07:04:02.329Z,993.09
2023-04-13T07:05:01.979Z,993.08
2023-04-13T07:06:01.911Z,993.08
2023-04-13T07:07:02.416Z,993.10
2023-04-13T07:08:02.247Z,993.14
2023-04-13T07:09:02.782Z,993.10
2023-04-13T07:10:02.782Z,993.11
2023-04-13T07:11:02.353Z,993.13
2023-04-13T07:12:01.888Z,993.12
2023-04-13T07:13:01.639Z,993.15
2023-04-13T07:14:02.112Z,993.15
2023-04-13T07:15:01.865Z,993.17
2023-04-13T07:16:01.734Z,993.19
2023-04-13T07:17:02.862Z,993.18
2023-04-13T07:18:02.576Z,993.19
2023-04-13T07:19:02.523Z,993.23
2023-04-13T07:20:02.302Z,993.22
2023-04-13T07:21:02.939Z,993.22
2023-04-13T07:22:02.312Z,993.28
2023-04-13T07:23:02.465Z,993.27
2023-04-13T07:24:02.268Z,993.32
2023-04-13T07:25:02.012Z,993.31
2023-04-13T07:26:01.917Z,993.35
2023-04-13T07:27:02.276Z,993.35
2023-04-13T07:28:02.287Z,993.36
2023-04-13T07:29:02.152Z,993.41
2023-04-13T07:30:02.151Z,993.41
2023-04-13T07:31:02.064Z,993.45
2023-04-13T07:32:02.438Z,993.48
2023-04-13T07:33:02.534Z,993.51
2023-04-13T07:34:02.443Z,993.52
2023-04-13T07:35:02.716Z,993.51
2023-04-13T07:36:02.055Z,993.58
2023-04-13T07:37:01.954Z,993.60
2023-04-13T07:38:01.803Z,993.62
2023-04-13T07:39:01.812Z,993.62
2023-04-13T07:40:01.975Z,993.63
2023-04-13T07:41:01.903Z,993.63
2023-04-13T07:42:02.429Z,993.61
2023-04-13T07:43:02.380Z,993.68
2023-04-13T07:44:02.241Z,993.66
2023-04-13T07:45:02.193Z,993.70
2023-04-13T07:46:02.040Z,993.68
2023-04-13T07:47:02.724Z,993.63
2023-04-13T07:48:02.561Z,993.65
2023-04-13T07:49:02.829Z,993.71
2023-04-13T07:50:02.501Z,993.75
2023-04-13T07:51:02.438Z,993.76
2023-04-13T07:52:02.105Z,993.81
2023-04-13T07:53:01.951Z,993.78
2023-04-13T07:54:01.730Z,993.75
2023-04-13T07:55:01.639Z,993.81
2023-04-13T07:56:02.232Z,993.81
2023-04-13T07:57:02.177Z,993.90
2023-04-13T07:58:01.955Z,993.84
2023-04-13T07:59:02.050Z,993.86
2023-04-13T08:00:01.730Z,993.91
2023-04-13T08:01:01.836Z,993.93
2023-04-13T08:02:02.378Z,993.97
2023-04-13T08:03:02.458Z,993.96
2023-04-13T08:04:02.333Z,993.93
2023-04-13T08:05:02.360Z,994.01
2023-04-13T08:06:02.184Z,994.01
2023-04-13T08:07:02.795Z,994.06
2023-04-13T08:08:02.704Z,994.12
2023-04-13T08:09:02.657Z,994.10
2023-04-13T08:10:02.615Z,994.12
2023-04-13T08:11:02.524Z,994.13
2023-04-13T08:12:02.218Z,994.04
2023-04-13T08:13:01.932Z,994.08
2023-04-13T08:14:01.799Z,994.06
2023-04-13T08:15:01.731Z,994.08
2023-04-13T08:16:02.378Z,994.06
2023-04-13T08:17:03.964Z,994.12
2023-04-13T08:18:02.733Z,994.13
2023-04-13T08:19:02.781Z,994.18
2023-04-13T08:20:02.716Z,994.15
2023-04-13T08:21:02.645Z,994.18
2023-04-13T08:22:02.380Z,994.17
2023-04-13T08:23:01.933Z,994.17
2023-04-13T08:24:01.929Z,994.14
2023-04-13T08:25:02.305Z,994.14
2023-04-13T08:26:02.168Z,994.14
2023-04-13T08:27:02.842Z,994.15
2023-04-13T08:28:02.901Z,994.15
2023-04-13T08:29:02.519Z,994.13
2023-04-13T08:30:02.638Z,994.17
2023-04-13T08:31:02.653Z,994.25
2023-04-13T08:32:02.397Z,994.18
2023-04-13T08:33:01.910Z,994.27
2023-04-13T08:34:01.750Z,994.28
2023-04-13T08:35:02.294Z,994.31
2023-04-13T08:36:02.036Z,994.31
2023-04-13T08:37:02.914Z,994.32
2023-04-13T08:38:02.342Z,994.35
2023-04-13T08:39:02.675Z,994.37
2023-04-13T08:40:02.612Z,994.35
2023-04-13T08:41:02.768Z,994.43
2023-04-13T08:42:01.720Z,994.48
2023-04-13T08:43:02.277Z,994.43
2023-04-13T08:44:01.906Z,994.41
2023-04-13T08:45:01.786Z,994.47
2023-04-13T08:46:01.772Z,994.47
2023-04-13T08:47:02.151Z,994.48
2023-04-13T08:48:02.155Z,994.54
2023-04-13T08:49:02.424Z,994.54
2023-04-13T08:50:01.851Z,994.55
2023-04-13T08:51:01.945Z,994.57
2023-04-13T08:52:02.223Z,994.61
2023-04-13T08:53:02.266Z,994.59
2023-04-13T08:54:02.196Z,994.62
2023-04-13T08:55:02.170Z,994.60
2023-04-13T08:56:02.098Z,994.64
2023-04-13T08:57:02.086Z,994.62
2023-04-13T08:58:02.274Z,994.66
2023-04-13T08:59:02.649Z,994.61
2023-04-13T09:00:02.528Z,994.66
2023-04-13T09:01:02.464Z,994.71
2023-04-13T09:02:02.565Z,994.75
2023-04-13T09:03:04.575Z,994.74
2023-04-13T09:04:02.995Z,994.69
2023-04-13T09:05:03.250Z,994.71
2023-04-13T09:06:02.878Z,994.68
2023-04-13T09:07:03.031Z,994.67
2023-04-13T09:08:03.115Z,994.71
2023-04-13T09:09:03.012Z,994.69
2023-04-13T09:10:03.082Z,994.69
2023-04-13T09:11:03.018Z,994.66
2023-04-13T09:12:02.973Z,994.67
2023-04-13T09:13:03.024Z,994.62
2023-04-13T09:14:03.212Z,994.64
2023-04-13T09:15:02.906Z,994.64
2023-04-13T09:16:03.085Z,994.58
2023-04-13T09:17:05.610Z,994.62
2023-04-13T09:18:03.504Z,994.56
2023-04-13T09:19:03.237Z,994.63
2023-04-13T09:20:03.085Z,994.64
2023-04-13T09:21:03.121Z,994.57
2023-04-13T09:22:03.080Z,994.60
2023-04-13T09:23:04.943Z,994.64
2023-04-13T09:24:03.023Z,994.65
2023-04-13T09:25:02.762Z,994.65
2023-04-13T09:26:02.766Z,994.68
2023-04-13T09:27:02.818Z,994.65
2023-04-13T09:28:02.834Z,994.64
2023-04-13T09:29:02.737Z,994.66
2023-04-13T09:30:02.679Z,994.67
2023-04-13T09:31:02.794Z,994.62
2023-04-13T09:32:03.313Z,994.66
2023-04-13T09:33:03.361Z,994.63
2023-04-13T09:34:03.552Z,994.69
2023-04-13T09:35:03.740Z,994.65
2023-04-13T09:36:03.432Z,994.65
2023-04-13T09:37:02.622Z,994.69
2023-04-13T09:38:02.381Z,994.66
2023-04-13T09:39:03.099Z,994.66
2023-04-13T09:40:02.774Z,994.67
2023-04-13T09:41:02.270Z,994.69
2023-04-13T09:42:02.924Z,994.73
2023-04-13T09:43:03.248Z,994.76
2023-04-13T09:44:03.349Z,994.80
2023-04-13T09:45:03.072Z,994.81
2023-04-13T09:46:02.978Z,994.76
2023-04-13T09:47:03.148Z,994.80
2023-04-13T09:48:03.208Z,994.82
2023-04-13T09:49:03.181Z,994.83
2023-04-13T09:50:03.162Z,994.88
2023-04-13T09:51:02.857Z,994.96
2023-04-13T09:52:03.326Z,994.91
2023-04-13T09:53:03.441Z,994.95
2023-04-13T09:54:03.757Z,994.98
2023-04-13T09:55:03.748Z,994.93
2023-04-13T09:56:03.507Z,994.94
2023-04-13T09:57:02.910Z,994.92
2023-04-13T09:58:02.791Z,994.93
2023-04-13T09:59:03.208Z,994.96
2023-04-13T10:00:03.068Z,994.95
2023-04-13T10:01:03.288Z,994.99
2023-04-13T10:02:02.977Z,995.02
2023-04-13T10:03:02.957Z,995.09
2023-04-13T10:04:03.036Z,995.04
2023-04-13T10:05:03.214Z,995.06
2023-04-13T10:06:03.123Z,995.05
2023-04-13T10:07:02.188Z,995.04
2023-04-13T10:08:01.864Z,994.99
2023-04-13T10:09:02.030Z,995.05
2023-04-13T10:10:02.335Z,995.02
2023-04-13T10:11:02.313Z,995.03
2023-04-13T10:12:02.279Z,995.01
2023-04-13T10:13:02.364Z,995.01
2023-04-13T10:14:02.620Z,995.06
2023-04-13T10:15:02.186Z,995.03
2023-04-13T10:16:04.112Z,995.08
2023-04-13T10:17:02.876Z,995.13
2023-04-13T10:18:02.865Z,995.05
2023-04-13T10:19:02.963Z,995.11
2023-04-13T10:20:03.159Z,995.10
2023-04-13T10:21:02.922Z,995.08
2023-04-13T10:22:02.542Z,995.13
2023-04-13T10:23:02.198Z,995.11
2023-04-13T10:24:02.730Z,995.07
2023-04-13T10:25:02.386Z,995.09
2023-04-13T10:26:02.266Z,995.10
2023-04-13T10:27:02.912Z,995.12
2023-04-13T10:28:03.202Z,995.10
2023-04-13T10:29:03.234Z,995.10
2023-04-13T10:30:02.992Z,995.11
2023-04-13T10:31:03.074Z,995.11
2023-04-13T10:32:03.073Z,995.08
2023-04-13T10:33:02.398Z,995.07
2023-04-13T10:34:02.430Z,995.08
2023-04-13T10:35:02.669Z,995.10
2023-04-13T10:36:02.334Z,995.08
2023-04-13T10:37:02.318Z,995.04
2023-04-13T10:38:02.471Z,995.08
2023-04-13T10:39:02.240Z,995.07
2023-04-13T10:40:01.976Z,995.04
2023-04-13T10:41:02.188Z,995.08
2023-04-13T10:42:02.399Z,995.10
2023-04-13T10:43:02.442Z,995.10
2023-04-13T10:44:02.318Z,995.08
2023-04-13T10:45:02.256Z,995.09
2023-04-13T10:46:02.084Z,995.14
2023-04-13T10:47:02.562Z,995.22
2023-04-13T10:48:02.205Z,995.27
2023-04-13T10:49:02.432Z,995.27
2023-04-13T10:50:02.541Z,995.25
2023-04-13T10:51:02.706Z,995.22
2023-04-13T10:52:02.989Z,995.24
2023-04-13T10:53:03.006Z,995.30
2023-04-13T10:54:03.038Z,995.29
2023-04-13T10:55:03.131Z,995.24
2023-04-13T10:56:02.938Z,995.28
2023-04-13T10:57:03.108Z,995.30
2023-04-13T10:58:02.768Z,995.24
2023-04-13T10:59:02.651Z,995.27
2023-04-13T11:00:03.156Z,995.19
2023-04-13T11:01:03.258Z,995.17
2023-04-13T11:02:02.667Z,995.18
2023-04-13T11:03:02.387Z,995.16
2023-04-13T11:04:05.308Z,995.15
2023-04-13T11:05:02.749Z,995.19
2023-04-13T11:06:02.447Z,995.18
2023-04-13T11:07:02.853Z,995.27
2023-04-13T11:08:02.746Z,995.23
2023-04-13T11:09:02.547Z,995.24
2023-04-13T11:10:03.762Z,995.25
2023-04-13T11:11:02.899Z,995.25
2023-04-13T11:12:03.262Z,995.33
2023-04-13T11:13:03.170Z,995.29
2023-04-13T11:14:03.378Z,995.35
2023-04-13T11:15:03.237Z,995.31
2023-04-13T11:16:03.182Z,995.29
2023-04-13T11:17:03.442Z,995.33
2023-04-13T11:18:03.347Z,995.43
2023-04-13T11:19:03.505Z,995.39
2023-04-13T11:20:03.106Z,995.41
2023-04-13T11:21:04.688Z,995.43
2023-04-13T11:22:02.911Z,995.40
2023-04-13T11:23:02.444Z,995.43
2023-04-13T11:24:02.442Z,995.46
2023-04-13T11:25:02.599Z,995.44
2023-04-13T11:26:02.381Z,995.48
2023-04-13T11:27:02.930Z,995.43
2023-04-13T11:28:03.006Z,995.44
2023-04-13T11:29:02.773Z,995.49
2023-04-13T11:30:02.621Z,995.41
2023-04-13T11:31:02.581Z,995.38
2023-04-13T11:32:03.234Z,995.41
2023-04-13T11:33:03.311Z,995.41
2023-04-13T11:34:03.151Z,995.40
2023-04-13T11:35:02.791Z,995.49
2023-04-13T11:36:03.227Z,995.49
2023-04-13T11:37:03.320Z,995.45
2023-04-13T11:38:02.908Z,995.47
2023-04-13T11:39:03.062Z,995.46
2023-04-13T11:40:03.186Z,995.47
2023-04-13T11:42:02.954Z,995.46
2023-04-13T11:43:02.600Z,995.37
2023-04-13T11:44:02.821Z,995.40
2023-04-13T11:45:02.828Z,995.44
2023-04-13T11:46:02.922Z,995.37
2023-04-13T11:47:03.456Z,995.44
2023-04-13T11:48:03.213Z,995.34
2023-04-13T11:49:03.340Z,995.41
2023-04-13T11:50:03.313Z,995.40
2023-04-13T11:51:03.600Z,995.43
2023-04-13T11:52:02.494Z,995.50
2023-04-13T11:53:02.797Z,995.53
2023-04-13T11:54:02.958Z,995.66
2023-04-13T11:55:14.768Z,995.72
2023-04-13T11:56:02.924Z,995.68
2023-04-13T11:57:02.938Z,995.75
2023-04-13T11:58:02.434Z,995.85
2023-04-13T11:59:02.485Z,995.86
2023-04-13T12:00:02.114Z,995.99
2023-04-13T12:01:03.450Z,995.88
2023-04-13T12:02:04.696Z,995.83
2023-04-13T12:03:03.392Z,995.79
2023-04-13T12:04:12.712Z,995.83
2023-04-13T12:05:02.847Z,995.80
2023-04-13T12:06:02.745Z,995.79
2023-04-13T12:07:03.220Z,995.77
2023-04-13T12:08:02.873Z,995.74
2023-04-13T12:09:09.329Z,995.75
2023-04-13T12:10:05.724Z,995.76
2023-04-13T12:12:39.263Z,995.74
2023-04-13T12:14:09.890Z,995.71
2023-04-13T12:16:08.685Z,995.72
2023-04-13T12:17:12.383Z,995.75
2023-04-13T12:18:14.288Z,995.74
2023-04-13T12:19:02.979Z,995.75
2023-04-13T12:20:04.119Z,995.71
2023-04-13T12:21:02.635Z,995.75
2023-04-13T12:22:03.543Z,995.78
2023-04-13T12:23:12.501Z,995.72
2023-04-13T12:24:02.674Z,995.66
2023-04-13T12:25:02.743Z,995.77
2023-04-13T12:26:18.798Z,995.68
2023-04-13T12:27:17.951Z,995.75
2023-04-13T12:28:02.786Z,995.77
2023-04-13T12:29:02.799Z,995.78
2023-04-13T12:30:03.048Z,995.77
2023-04-13T12:31:03.301Z,995.74
2023-04-13T12:32:02.956Z,995.78
2023-04-13T12:33:02.981Z,995.76
2023-04-13T12:34:02.372Z,995.83